Terminal Aerodrome Forecast
Issued by NWS Paducah, KY

Home | Current Version | Previous Version | Text Only | Print | Product List | Glossary On
Versions: 1 2 3 4 5 6 7 8 9 10 11 12 13 14 15 16 17 18
000
FTUS43 KPAH 161343 AAA
TAFEVV
TAF AMD
KEVV 161343Z 1614/1712 18003KT P6SM BKN015 OVC025
      TEMPO 1614/1615 BKN005
     FM161600 18005KT P6SM SCT025 BKN200=

USA.gov is the U.S. government's official web portal to all federal, state and local government web resources and services.